Strona główna
METAR-TAF:

METAR-TAF

Lotnisko :

Fort Wayne, Indiana, Stany Zjednoczone

Szerokość geograficzna: 40-58-42N, Długość geograficzna: 085-11-43W, wysokość: 248 m

Aktualna obserwacja pogody

Raport powstał 1 godzina i 7 minut temu, godzina 06:54 UTC
Wiatr 6 kt od zachód
Temperatura -11°C
Wilgotność 85%
Ciśnienie 1030 hPa
Widzialność: 16.1 km
Mało chmury na wysokości 3400 ft
Mało chmury na wysokości 24000 ft

METAR: KFWA 200654Z 28006KT 10SM FEW034 FEW240 M11/M13 A3043 RMK AO2 SLP322 T11061128 $

czas: 03:01 (08:01 UTC)

Prognoza

Raport powstał 2 godziny i 27 minut temu, godzina 05:34 UTC
Prognoza ważna od 20 godzina 06 UTC do 21 godzina 06 UTC
Wiatr 7 kt od zachód
Widzialność: 10 km
bezchmurnie
Od 20 godzina 1600 UTC
Wiatr 6 kt od północno-północny zachód
Widzialność: 10 km
Rozproszone chmury na wysokości 3500 ft

TAF: KFWA 200534Z 2006/2106 28007KT P6SM SKC FM201600 34006KT P6SM SCT035

Obserwacja i prognoza pogody dla ponad 4000 lotnisk (raport METAR i TAF).

Dostępne stacje oznaczono żółtymi i czerwonymi punktami na mapie.

Najedź kursorem aby zobaczyć nazwę stacji.

Kliknij aby zobaczyć obserwacje i prognozy pogody.

Aby zmienić mapę: kliknij na zielony przycisk z czarnym krzyżykiem, aby powiększyć; na zielony przycisk z myślnikiem, aby pomniejszyć; na zielone strzałki, aby przejść do map sąsiednich.


METAR-TAF: